sensor_id;sensor_type;location;lat;lon;timestamp;P1;durP1;ratioP1;P2;durP2;ratioP2
72647;SDS011;60693;50.002;8.644;2023-02-23T00:01:11;33.05;;;13.85;;
72647;SDS011;60693;50.002;8.644;2023-02-23T00:03:38;30.65;;;13.77;;
72647;SDS011;60693;50.002;8.644;2023-02-23T00:06:05;28.45;;;13.48;;
72647;SDS011;60693;50.002;8.644;2023-02-23T00:08:32;28.90;;;13.63;;
72647;SDS011;60693;50.002;8.644;2023-02-23T00:11:00;33.35;;;14.23;;
72647;SDS011;60693;50.002;8.644;2023-02-23T00:13:27;30.60;;;14.13;;
72647;SDS011;60693;50.002;8.644;2023-02-23T00:15:55;35.78;;;14.52;;
72647;SDS011;60693;50.002;8.644;2023-02-23T00:18:21;31.33;;;14.15;;
72647;SDS011;60693;50.002;8.644;2023-02-23T00:20:56;32.37;;;15.27;;
72647;SDS011;60693;50.002;8.644;2023-02-23T00:23:22;28.85;;;13.65;;
72647;SDS011;60693;50.002;8.644;2023-02-23T00:25:48;34.13;;;14.00;;
72647;SDS011;60693;50.002;8.644;2023-02-23T00:28:14;34.90;;;14.93;;
72647;SDS011;60693;50.002;8.644;2023-02-23T00:30:40;34.78;;;13.85;;
72647;SDS011;60693;50.002;8.644;2023-02-23T00:33:05;29.53;;;14.07;;
72647;SDS011;60693;50.002;8.644;2023-02-23T00:35:32;31.05;;;13.43;;
72647;SDS011;60693;50.002;8.644;2023-02-23T00:37:58;34.30;;;14.60;;
72647;SDS011;60693;50.002;8.644;2023-02-23T00:40:23;32.60;;;14.13;;
72647;SDS011;60693;50.002;8.644;2023-02-23T00:42:49;30.17;;;14.60;;
72647;SDS011;60693;50.002;8.644;2023-02-23T00:45:16;38.70;;;15.75;;
72647;SDS011;60693;50.002;8.644;2023-02-23T00:47:42;32.03;;;14.27;;
72647;SDS011;60693;50.002;8.644;2023-02-23T00:50:14;32.22;;;15.02;;
72647;SDS011;60693;50.002;8.644;2023-02-23T00:52:41;35.97;;;15.03;;
72647;SDS011;60693;50.002;8.644;2023-02-23T00:55:08;34.20;;;15.73;;
72647;SDS011;60693;50.002;8.644;2023-02-23T00:57:35;32.58;;;15.30;;
72647;SDS011;60693;50.002;8.644;2023-02-23T01:00:01;33.95;;;14.77;;
72647;SDS011;60693;50.002;8.644;2023-02-23T01:02:37;32.85;;;15.38;;
72647;SDS011;60693;50.002;8.644;2023-02-23T01:05:03;36.92;;;15.80;;
72647;SDS011;60693;50.002;8.644;2023-02-23T01:07:29;34.88;;;15.95;;
72647;SDS011;60693;50.002;8.644;2023-02-23T01:09:54;32.47;;;16.07;;
72647;SDS011;60693;50.002;8.644;2023-02-23T01:12:20;34.13;;;15.45;;
72647;SDS011;60693;50.002;8.644;2023-02-23T01:14:46;33.50;;;15.67;;
72647;SDS011;60693;50.002;8.644;2023-02-23T01:17:12;38.08;;;15.75;;
72647;SDS011;60693;50.002;8.644;2023-02-23T01:19:37;35.00;;;15.88;;
72647;SDS011;60693;50.002;8.644;2023-02-23T01:22:03;30.85;;;15.13;;
72647;SDS011;60693;50.002;8.644;2023-02-23T01:24:29;38.22;;;16.83;;
72647;SDS011;60693;50.002;8.644;2023-02-23T01:26:54;35.90;;;16.13;;
72647;SDS011;60693;50.002;8.644;2023-02-23T01:29:20;36.83;;;16.77;;
72647;SDS011;60693;50.002;8.644;2023-02-23T01:31:46;35.30;;;16.60;;
72647;SDS011;60693;50.002;8.644;2023-02-23T01:34:15;34.97;;;16.00;;
72647;SDS011;60693;50.002;8.644;2023-02-23T01:36:41;34.93;;;16.10;;
72647;SDS011;60693;50.002;8.644;2023-02-23T01:39:09;37.05;;;17.60;;
72647;SDS011;60693;50.002;8.644;2023-02-23T01:41:38;36.97;;;15.55;;
72647;SDS011;60693;50.002;8.644;2023-02-23T01:46:38;40.45;;;18.02;;
72647;SDS011;60693;50.002;8.644;2023-02-23T01:49:12;39.13;;;17.13;;
72647;SDS011;60693;50.002;8.644;2023-02-23T01:52:03;42.40;;;18.55;;
72647;SDS011;60693;50.002;8.644;2023-02-23T01:54:37;37.53;;;16.75;;
72647;SDS011;60693;50.002;8.644;2023-02-23T01:57:04;43.00;;;18.08;;
72647;SDS011;60693;50.002;8.644;2023-02-23T01:59:43;39.85;;;17.10;;
72647;SDS011;60693;50.002;8.644;2023-02-23T02:02:11;38.70;;;16.77;;
72647;SDS011;60693;50.002;8.644;2023-02-23T02:04:38;42.88;;;18.83;;
72647;SDS011;60693;50.002;8.644;2023-02-23T02:07:11;40.80;;;19.00;;
72647;SDS011;60693;50.002;8.644;2023-02-23T02:09:38;41.25;;;18.15;;
72647;SDS011;60693;50.002;8.644;2023-02-23T02:12:10;43.80;;;19.17;;
72647;SDS011;60693;50.002;8.644;2023-02-23T02:14:36;44.60;;;18.88;;
72647;SDS011;60693;50.002;8.644;2023-02-23T02:17:10;45.53;;;18.70;;
72647;SDS011;60693;50.002;8.644;2023-02-23T02:25:20;39.95;;;17.42;;
72647;SDS011;60693;50.002;8.644;2023-02-23T02:39:04;40.35;;;18.42;;
72647;SDS011;60693;50.002;8.644;2023-02-23T02:44:57;36.17;;;17.23;;
72647;SDS011;60693;50.002;8.644;2023-02-23T02:47:31;39.85;;;17.63;;
72647;SDS011;60693;50.002;8.644;2023-02-23T02:50:05;37.47;;;16.75;;
72647;SDS011;60693;50.002;8.644;2023-02-23T02:52:35;45.17;;;18.33;;
72647;SDS011;60693;50.002;8.644;2023-02-23T02:57:43;42.97;;;17.65;;
72647;SDS011;60693;50.002;8.644;2023-02-23T03:00:14;41.40;;;19.20;;
72647;SDS011;60693;50.002;8.644;2023-02-23T03:03:02;42.53;;;17.27;;
72647;SDS011;60693;50.002;8.644;2023-02-23T03:05:47;42.47;;;18.80;;
72647;SDS011;60693;50.002;8.644;2023-02-23T03:11:35;39.60;;;18.48;;
72647;SDS011;60693;50.002;8.644;2023-02-23T03:14:32;43.00;;;18.50;;
72647;SDS011;60693;50.002;8.644;2023-02-23T03:17:43;41.97;;;18.08;;
72647;SDS011;60693;50.002;8.644;2023-02-23T03:20:36;45.22;;;19.73;;
72647;SDS011;60693;50.002;8.644;2023-02-23T03:23:42;41.30;;;17.73;;
72647;SDS011;60693;50.002;8.644;2023-02-23T03:26:31;44.47;;;18.45;;
72647;SDS011;60693;50.002;8.644;2023-02-23T03:35:29;41.80;;;18.55;;
72647;SDS011;60693;50.002;8.644;2023-02-23T03:38:21;40.13;;;18.77;;
72647;SDS011;60693;50.002;8.644;2023-02-23T03:41:19;48.47;;;20.38;;
72647;SDS011;60693;50.002;8.644;2023-02-23T03:44:06;45.70;;;20.00;;
72647;SDS011;60693;50.002;8.644;2023-02-23T03:46:54;47.47;;;20.48;;
72647;SDS011;60693;50.002;8.644;2023-02-23T03:49:38;46.45;;;20.52;;
72647;SDS011;60693;50.002;8.644;2023-02-23T03:52:26;41.73;;;19.13;;
72647;SDS011;60693;50.002;8.644;2023-02-23T03:55:23;46.38;;;20.30;;
72647;SDS011;60693;50.002;8.644;2023-02-23T03:58:11;48.80;;;21.25;;
72647;SDS011;60693;50.002;8.644;2023-02-23T04:00:57;43.78;;;20.42;;
72647;SDS011;60693;50.002;8.644;2023-02-23T04:03:45;44.00;;;19.60;;
72647;SDS011;60693;50.002;8.644;2023-02-23T04:06:31;51.70;;;21.40;;
72647;SDS011;60693;50.002;8.644;2023-02-23T04:09:19;47.25;;;20.50;;
72647;SDS011;60693;50.002;8.644;2023-02-23T04:15:07;48.50;;;20.35;;
72647;SDS011;60693;50.002;8.644;2023-02-23T04:17:35;46.00;;;20.88;;
72647;SDS011;60693;50.002;8.644;2023-02-23T04:20:01;43.53;;;20.07;;
72647;SDS011;60693;50.002;8.644;2023-02-23T04:22:27;47.97;;;20.70;;
72647;SDS011;60693;50.002;8.644;2023-02-23T04:24:57;51.72;;;21.67;;
72647;SDS011;60693;50.002;8.644;2023-02-23T04:27:22;50.23;;;20.60;;
72647;SDS011;60693;50.002;8.644;2023-02-23T04:29:48;46.35;;;21.35;;
72647;SDS011;60693;50.002;8.644;2023-02-23T04:32:15;53.40;;;23.33;;
72647;SDS011;60693;50.002;8.644;2023-02-23T04:34:42;51.38;;;22.90;;
72647;SDS011;60693;50.002;8.644;2023-02-23T04:37:08;49.63;;;21.77;;
72647;SDS011;60693;50.002;8.644;2023-02-23T04:39:34;58.65;;;23.60;;
72647;SDS011;60693;50.002;8.644;2023-02-23T04:42:00;66.65;;;25.77;;
72647;SDS011;60693;50.002;8.644;2023-02-23T04:44:26;57.45;;;23.50;;
72647;SDS011;60693;50.002;8.644;2023-02-23T04:46:51;54.67;;;22.52;;
72647;SDS011;60693;50.002;8.644;2023-02-23T04:49:17;57.60;;;23.58;;
72647;SDS011;60693;50.002;8.644;2023-02-23T04:51:43;57.05;;;25.38;;
72647;SDS011;60693;50.002;8.644;2023-02-23T04:54:09;55.80;;;23.57;;
72647;SDS011;60693;50.002;8.644;2023-02-23T04:56:34;51.97;;;22.30;;
72647;SDS011;60693;50.002;8.644;2023-02-23T04:59:00;57.30;;;23.05;;
72647;SDS011;60693;50.002;8.644;2023-02-23T05:01:25;53.73;;;22.70;;
72647;SDS011;60693;50.002;8.644;2023-02-23T05:03:52;65.50;;;23.75;;
72647;SDS011;60693;50.002;8.644;2023-02-23T05:06:18;53.08;;;23.30;;
72647;SDS011;60693;50.002;8.644;2023-02-23T05:08:44;56.37;;;23.37;;
72647;SDS011;60693;50.002;8.644;2023-02-23T05:11:10;58.55;;;22.30;;
72647;SDS011;60693;50.002;8.644;2023-02-23T05:13:36;54.92;;;22.27;;
72647;SDS011;60693;50.002;8.644;2023-02-23T05:16:02;55.97;;;22.47;;
72647;SDS011;60693;50.002;8.644;2023-02-23T05:18:28;60.28;;;23.38;;
72647;SDS011;60693;50.002;8.644;2023-02-23T05:21:00;55.90;;;23.73;;
72647;SDS011;60693;50.002;8.644;2023-02-23T05:23:28;63.75;;;24.33;;
72647;SDS011;60693;50.002;8.644;2023-02-23T05:25:59;57.45;;;23.38;;
72647;SDS011;60693;50.002;8.644;2023-02-23T05:28:26;63.42;;;24.38;;
72647;SDS011;60693;50.002;8.644;2023-02-23T05:30:52;61.83;;;23.30;;
72647;SDS011;60693;50.002;8.644;2023-02-23T05:33:17;67.53;;;24.17;;
72647;SDS011;60693;50.002;8.644;2023-02-23T05:35:43;57.00;;;23.33;;
72647;SDS011;60693;50.002;8.644;2023-02-23T05:38:09;64.07;;;24.55;;
72647;SDS011;60693;50.002;8.644;2023-02-23T05:40:35;62.57;;;23.63;;
72647;SDS011;60693;50.002;8.644;2023-02-23T05:43:01;68.72;;;25.00;;
72647;SDS011;60693;50.002;8.644;2023-02-23T05:45:26;69.47;;;25.20;;
72647;SDS011;60693;50.002;8.644;2023-02-23T05:47:52;60.63;;;23.92;;
72647;SDS011;60693;50.002;8.644;2023-02-23T05:50:17;58.03;;;23.30;;
72647;SDS011;60693;50.002;8.644;2023-02-23T05:52:43;58.77;;;24.00;;
72647;SDS011;60693;50.002;8.644;2023-02-23T05:55:09;61.30;;;24.40;;
72647;SDS011;60693;50.002;8.644;2023-02-23T05:57:36;58.15;;;22.38;;
72647;SDS011;60693;50.002;8.644;2023-02-23T06:00:03;71.90;;;26.57;;
72647;SDS011;60693;50.002;8.644;2023-02-23T06:02:30;60.60;;;23.33;;
72647;SDS011;60693;50.002;8.644;2023-02-23T06:04:56;59.40;;;24.83;;
72647;SDS011;60693;50.002;8.644;2023-02-23T06:07:22;61.75;;;25.42;;
72647;SDS011;60693;50.002;8.644;2023-02-23T06:09:47;81.38;;;34.15;;
72647;SDS011;60693;50.002;8.644;2023-02-23T06:12:13;68.13;;;24.07;;
72647;SDS011;60693;50.002;8.644;2023-02-23T06:14:38;67.28;;;25.77;;
72647;SDS011;60693;50.002;8.644;2023-02-23T06:17:04;62.90;;;25.13;;
72647;SDS011;60693;50.002;8.644;2023-02-23T06:19:30;61.13;;;24.27;;
72647;SDS011;60693;50.002;8.644;2023-02-23T06:21:57;69.68;;;24.55;;
72647;SDS011;60693;50.002;8.644;2023-02-23T06:24:22;59.50;;;23.48;;
72647;SDS011;60693;50.002;8.644;2023-02-23T06:26:49;62.20;;;24.83;;
72647;SDS011;60693;50.002;8.644;2023-02-23T06:29:14;63.33;;;23.80;;
72647;SDS011;60693;50.002;8.644;2023-02-23T06:31:41;62.92;;;23.77;;
72647;SDS011;60693;50.002;8.644;2023-02-23T06:34:07;61.42;;;25.08;;
72647;SDS011;60693;50.002;8.644;2023-02-23T06:36:34;64.00;;;24.88;;
72647;SDS011;60693;50.002;8.644;2023-02-23T06:38:59;60.47;;;25.83;;
72647;SDS011;60693;50.002;8.644;2023-02-23T06:41:25;63.63;;;24.83;;
72647;SDS011;60693;50.002;8.644;2023-02-23T06:43:51;81.60;;;31.42;;
72647;SDS011;60693;50.002;8.644;2023-02-23T06:46:17;63.83;;;24.70;;
72647;SDS011;60693;50.002;8.644;2023-02-23T06:48:43;59.77;;;24.83;;
72647;SDS011;60693;50.002;8.644;2023-02-23T06:51:08;63.55;;;23.92;;
72647;SDS011;60693;50.002;8.644;2023-02-23T06:53:34;60.35;;;23.80;;
72647;SDS011;60693;50.002;8.644;2023-02-23T06:56:01;62.93;;;22.50;;
72647;SDS011;60693;50.002;8.644;2023-02-23T06:58:27;65.63;;;25.15;;
72647;SDS011;60693;50.002;8.644;2023-02-23T07:00:54;65.85;;;26.90;;
72647;SDS011;60693;50.002;8.644;2023-02-23T07:03:21;68.53;;;26.13;;
72647;SDS011;60693;50.002;8.644;2023-02-23T07:05:47;62.95;;;24.80;;
72647;SDS011;60693;50.002;8.644;2023-02-23T07:08:14;69.40;;;25.83;;
72647;SDS011;60693;50.002;8.644;2023-02-23T07:10:42;68.25;;;29.17;;
72647;SDS011;60693;50.002;8.644;2023-02-23T07:13:08;62.35;;;25.83;;
72647;SDS011;60693;50.002;8.644;2023-02-23T07:15:37;71.23;;;25.67;;
72647;SDS011;60693;50.002;8.644;2023-02-23T07:18:03;78.13;;;28.27;;
72647;SDS011;60693;50.002;8.644;2023-02-23T07:20:29;69.90;;;26.38;;
72647;SDS011;60693;50.002;8.644;2023-02-23T07:22:55;68.85;;;26.75;;
72647;SDS011;60693;50.002;8.644;2023-02-23T07:25:21;59.23;;;23.57;;
72647;SDS011;60693;50.002;8.644;2023-02-23T07:27:47;66.95;;;25.75;;
72647;SDS011;60693;50.002;8.644;2023-02-23T07:30:13;71.77;;;30.40;;
72647;SDS011;60693;50.002;8.644;2023-02-23T07:32:38;72.80;;;25.20;;
72647;SDS011;60693;50.002;8.644;2023-02-23T07:35:04;58.40;;;24.25;;
72647;SDS011;60693;50.002;8.644;2023-02-23T07:37:30;75.73;;;26.97;;
72647;SDS011;60693;50.002;8.644;2023-02-23T07:39:56;65.75;;;25.00;;
72647;SDS011;60693;50.002;8.644;2023-02-23T07:42:22;64.63;;;25.33;;
72647;SDS011;60693;50.002;8.644;2023-02-23T07:44:47;72.30;;;26.58;;
72647;SDS011;60693;50.002;8.644;2023-02-23T07:47:13;75.20;;;26.63;;
72647;SDS011;60693;50.002;8.644;2023-02-23T07:49:39;72.45;;;25.25;;
72647;SDS011;60693;50.002;8.644;2023-02-23T07:52:04;69.93;;;26.27;;
72647;SDS011;60693;50.002;8.644;2023-02-23T07:54:30;68.43;;;26.85;;
72647;SDS011;60693;50.002;8.644;2023-02-23T07:56:55;74.47;;;26.27;;
72647;SDS011;60693;50.002;8.644;2023-02-23T07:59:21;66.17;;;26.37;;
72647;SDS011;60693;50.002;8.644;2023-02-23T08:01:46;71.43;;;25.58;;
72647;SDS011;60693;50.002;8.644;2023-02-23T08:04:12;67.40;;;23.93;;
72647;SDS011;60693;50.002;8.644;2023-02-23T08:06:38;71.13;;;25.53;;
72647;SDS011;60693;50.002;8.644;2023-02-23T08:09:04;65.75;;;25.52;;
72647;SDS011;60693;50.002;8.644;2023-02-23T08:11:30;63.03;;;24.58;;
72647;SDS011;60693;50.002;8.644;2023-02-23T08:13:56;71.03;;;28.30;;
72647;SDS011;60693;50.002;8.644;2023-02-23T08:16:30;62.50;;;25.20;;
72647;SDS011;60693;50.002;8.644;2023-02-23T08:18:57;65.20;;;24.77;;
72647;SDS011;60693;50.002;8.644;2023-02-23T08:21:24;70.65;;;25.08;;
72647;SDS011;60693;50.002;8.644;2023-02-23T08:23:50;63.67;;;23.95;;
72647;SDS011;60693;50.002;8.644;2023-02-23T08:26:15;69.17;;;24.93;;
72647;SDS011;60693;50.002;8.644;2023-02-23T08:28:41;60.33;;;23.50;;
72647;SDS011;60693;50.002;8.644;2023-02-23T08:31:09;64.85;;;25.40;;
72647;SDS011;60693;50.002;8.644;2023-02-23T08:33:38;52.85;;;23.52;;
72647;SDS011;60693;50.002;8.644;2023-02-23T08:36:07;60.78;;;25.52;;
72647;SDS011;60693;50.002;8.644;2023-02-23T08:38:33;65.18;;;25.55;;
72647;SDS011;60693;50.002;8.644;2023-02-23T08:41:01;61.33;;;23.67;;
72647;SDS011;60693;50.002;8.644;2023-02-23T08:43:27;59.15;;;22.52;;
72647;SDS011;60693;50.002;8.644;2023-02-23T08:45:53;55.92;;;22.10;;
72647;SDS011;60693;50.002;8.644;2023-02-23T08:48:19;60.23;;;22.60;;
72647;SDS011;60693;50.002;8.644;2023-02-23T08:50:47;57.30;;;22.75;;
72647;SDS011;60693;50.002;8.644;2023-02-23T08:53:16;56.72;;;23.02;;
72647;SDS011;60693;50.002;8.644;2023-02-23T08:55:42;54.42;;;21.95;;
72647;SDS011;60693;50.002;8.644;2023-02-23T08:58:09;51.30;;;21.63;;
72647;SDS011;60693;50.002;8.644;2023-02-23T09:00:37;61.73;;;21.63;;
72647;SDS011;60693;50.002;8.644;2023-02-23T09:03:04;52.88;;;21.40;;
72647;SDS011;60693;50.002;8.644;2023-02-23T09:05:35;53.20;;;20.17;;
72647;SDS011;60693;50.002;8.644;2023-02-23T09:08:01;47.78;;;20.35;;
72647;SDS011;60693;50.002;8.644;2023-02-23T09:10:27;53.90;;;20.70;;
72647;SDS011;60693;50.002;8.644;2023-02-23T09:12:53;51.83;;;20.02;;
72647;SDS011;60693;50.002;8.644;2023-02-23T09:15:19;54.65;;;21.20;;
72647;SDS011;60693;50.002;8.644;2023-02-23T09:17:45;54.33;;;21.13;;
72647;SDS011;60693;50.002;8.644;2023-02-23T09:20:13;51.55;;;20.15;;
72647;SDS011;60693;50.002;8.644;2023-02-23T09:22:41;40.30;;;17.45;;
72647;SDS011;60693;50.002;8.644;2023-02-23T09:25:14;46.85;;;19.10;;
72647;SDS011;60693;50.002;8.644;2023-02-23T09:27:44;46.20;;;18.77;;
72647;SDS011;60693;50.002;8.644;2023-02-23T09:30:10;46.10;;;18.50;;
72647;SDS011;60693;50.002;8.644;2023-02-23T09:32:43;46.90;;;20.00;;
72647;SDS011;60693;50.002;8.644;2023-02-23T09:35:09;43.95;;;18.95;;
72647;SDS011;60693;50.002;8.644;2023-02-23T09:37:35;50.50;;;19.40;;
72647;SDS011;60693;50.002;8.644;2023-02-23T09:40:00;50.33;;;19.43;;
72647;SDS011;60693;50.002;8.644;2023-02-23T09:45:08;43.63;;;17.75;;
72647;SDS011;60693;50.002;8.644;2023-02-23T09:47:54;44.50;;;17.60;;
72647;SDS011;60693;50.002;8.644;2023-02-23T09:50:26;43.35;;;18.05;;
72647;SDS011;60693;50.002;8.644;2023-02-23T09:53:04;43.58;;;16.95;;
72647;SDS011;60693;50.002;8.644;2023-02-23T09:55:32;43.15;;;17.63;;
72647;SDS011;60693;50.002;8.644;2023-02-23T09:58:01;40.77;;;18.63;;
72647;SDS011;60693;50.002;8.644;2023-02-23T10:00:30;39.53;;;17.63;;
72647;SDS011;60693;50.002;8.644;2023-02-23T10:03:26;39.63;;;16.83;;
72647;SDS011;60693;50.002;8.644;2023-02-23T10:05:57;42.78;;;18.15;;
72647;SDS011;60693;50.002;8.644;2023-02-23T10:11:15;36.08;;;17.55;;
72647;SDS011;60693;50.002;8.644;2023-02-23T10:13:50;40.40;;;16.10;;
72647;SDS011;60693;50.002;8.644;2023-02-23T10:22:15;32.10;;;15.43;;
72647;SDS011;60693;50.002;8.644;2023-02-23T10:24:42;38.97;;;16.08;;
72647;SDS011;60693;50.002;8.644;2023-02-23T10:27:17;36.13;;;15.15;;
72647;SDS011;60693;50.002;8.644;2023-02-23T10:34:54;43.72;;;18.65;;
72647;SDS011;60693;50.002;8.644;2023-02-23T10:37:21;37.03;;;15.57;;
72647;SDS011;60693;50.002;8.644;2023-02-23T10:39:47;34.17;;;15.13;;
72647;SDS011;60693;50.002;8.644;2023-02-23T10:42:18;33.40;;;14.40;;
72647;SDS011;60693;50.002;8.644;2023-02-23T10:44:47;29.65;;;13.43;;
72647;SDS011;60693;50.002;8.644;2023-02-23T10:47:18;30.92;;;13.70;;
72647;SDS011;60693;50.002;8.644;2023-02-23T10:49:47;31.80;;;13.80;;
72647;SDS011;60693;50.002;8.644;2023-02-23T10:52:15;29.55;;;13.00;;
72647;SDS011;60693;50.002;8.644;2023-02-23T10:54:45;31.13;;;13.47;;
72647;SDS011;60693;50.002;8.644;2023-02-23T10:57:17;27.75;;;11.85;;
72647;SDS011;60693;50.002;8.644;2023-02-23T11:00:06;29.73;;;12.40;;
72647;SDS011;60693;50.002;8.644;2023-02-23T11:02:32;30.45;;;12.63;;
72647;SDS011;60693;50.002;8.644;2023-02-23T11:04:58;27.48;;;12.00;;
72647;SDS011;60693;50.002;8.644;2023-02-23T11:07:29;26.27;;;12.13;;
72647;SDS011;60693;50.002;8.644;2023-02-23T11:09:56;25.52;;;11.48;;
72647;SDS011;60693;50.002;8.644;2023-02-23T11:12:28;26.33;;;11.90;;
72647;SDS011;60693;50.002;8.644;2023-02-23T11:15:21;25.45;;;11.35;;
72647;SDS011;60693;50.002;8.644;2023-02-23T11:17:56;23.58;;;10.40;;
72647;SDS011;60693;50.002;8.644;2023-02-23T11:20:30;22.67;;;9.87;;
72647;SDS011;60693;50.002;8.644;2023-02-23T11:23:02;24.20;;;9.45;;
72647;SDS011;60693;50.002;8.644;2023-02-23T11:25:57;63.67;;;36.28;;
72647;SDS011;60693;50.002;8.644;2023-02-23T11:28:26;25.35;;;11.50;;
72647;SDS011;60693;50.002;8.644;2023-02-23T11:31:02;24.83;;;10.23;;
72647;SDS011;60693;50.002;8.644;2023-02-23T11:33:30;25.03;;;12.23;;
72647;SDS011;60693;50.002;8.644;2023-02-23T11:36:14;62.80;;;31.73;;
72647;SDS011;60693;50.002;8.644;2023-02-23T11:39:23;25.67;;;11.45;;
72647;SDS011;60693;50.002;8.644;2023-02-23T11:42:02;19.70;;;9.25;;
72647;SDS011;60693;50.002;8.644;2023-02-23T11:44:39;17.58;;;7.97;;
72647;SDS011;60693;50.002;8.644;2023-02-23T11:47:12;17.50;;;7.37;;
72647;SDS011;60693;50.002;8.644;2023-02-23T11:49:39;18.98;;;7.82;;
72647;SDS011;60693;50.002;8.644;2023-02-23T11:52:11;21.40;;;7.78;;
72647;SDS011;60693;50.002;8.644;2023-02-23T11:54:39;17.52;;;7.40;;
72647;SDS011;60693;50.002;8.644;2023-02-23T11:57:06;17.60;;;6.93;;
72647;SDS011;60693;50.002;8.644;2023-02-23T11:59:36;17.47;;;7.80;;
72647;SDS011;60693;50.002;8.644;2023-02-23T12:04:43;16.20;;;6.90;;
72647;SDS011;60693;50.002;8.644;2023-02-23T12:12:41;16.90;;;6.60;;
72647;SDS011;60693;50.002;8.644;2023-02-23T12:18:03;13.50;;;5.82;;
72647;SDS011;60693;50.002;8.644;2023-02-23T12:20:33;16.38;;;6.22;;
72647;SDS011;60693;50.002;8.644;2023-02-23T12:23:07;19.67;;;8.18;;
72647;SDS011;60693;50.002;8.644;2023-02-23T12:25:39;17.00;;;6.63;;
72647;SDS011;60693;50.002;8.644;2023-02-23T12:28:12;18.73;;;8.25;;
72647;SDS011;60693;50.002;8.644;2023-02-23T12:30:45;17.05;;;6.55;;
72647;SDS011;60693;50.002;8.644;2023-02-23T12:35:55;16.63;;;6.82;;
72647;SDS011;60693;50.002;8.644;2023-02-23T12:41:11;20.58;;;5.95;;
72647;SDS011;60693;50.002;8.644;2023-02-23T12:46:20;17.65;;;6.30;;
72647;SDS011;60693;50.002;8.644;2023-02-23T12:51:38;14.63;;;5.93;;
72647;SDS011;60693;50.002;8.644;2023-02-23T12:54:07;15.80;;;5.95;;
72647;SDS011;60693;50.002;8.644;2023-02-23T12:56:43;14.32;;;5.85;;
72647;SDS011;60693;50.002;8.644;2023-02-23T13:02:23;14.93;;;6.13;;
72647;SDS011;60693;50.002;8.644;2023-02-23T13:07:35;15.18;;;5.95;;
72647;SDS011;60693;50.002;8.644;2023-02-23T13:10:12;14.57;;;5.70;;
72647;SDS011;60693;50.002;8.644;2023-02-23T13:13:11;14.93;;;5.75;;
72647;SDS011;60693;50.002;8.644;2023-02-23T13:18:40;14.27;;;5.18;;
72647;SDS011;60693;50.002;8.644;2023-02-23T13:21:31;72.22;;;36.10;;
72647;SDS011;60693;50.002;8.644;2023-02-23T13:24:18;13.52;;;4.60;;
72647;SDS011;60693;50.002;8.644;2023-02-23T13:32:08;26.23;;;11.32;;
72647;SDS011;60693;50.002;8.644;2023-02-23T13:37:44;13.07;;;4.85;;
72647;SDS011;60693;50.002;8.644;2023-02-23T13:43:08;14.88;;;5.57;;
72647;SDS011;60693;50.002;8.644;2023-02-23T13:51:13;14.05;;;5.35;;
72647;SDS011;60693;50.002;8.644;2023-02-23T13:53:46;11.13;;;4.45;;
72647;SDS011;60693;50.002;8.644;2023-02-23T13:56:23;13.18;;;4.90;;
72647;SDS011;60693;50.002;8.644;2023-02-23T13:58:59;13.45;;;4.53;;
72647;SDS011;60693;50.002;8.644;2023-02-23T14:01:30;13.02;;;4.35;;
72647;SDS011;60693;50.002;8.644;2023-02-23T14:03:58;13.63;;;4.38;;
72647;SDS011;60693;50.002;8.644;2023-02-23T14:06:26;15.18;;;5.80;;
72647;SDS011;60693;50.002;8.644;2023-02-23T14:08:57;11.50;;;4.80;;
72647;SDS011;60693;50.002;8.644;2023-02-23T14:11:29;12.43;;;4.97;;
72647;SDS011;60693;50.002;8.644;2023-02-23T14:14:01;11.50;;;4.50;;
72647;SDS011;60693;50.002;8.644;2023-02-23T14:16:27;12.18;;;3.95;;
72647;SDS011;60693;50.002;8.644;2023-02-23T14:22:00;16.20;;;5.05;;
72647;SDS011;60693;50.002;8.644;2023-02-23T14:24:29;10.18;;;3.58;;
72647;SDS011;60693;50.002;8.644;2023-02-23T14:29:43;10.40;;;3.35;;
72647;SDS011;60693;50.002;8.644;2023-02-23T14:37:13;11.60;;;3.92;;
72647;SDS011;60693;50.002;8.644;2023-02-23T14:39:41;12.15;;;3.72;;
72647;SDS011;60693;50.002;8.644;2023-02-23T14:42:07;12.05;;;3.88;;
72647;SDS011;60693;50.002;8.644;2023-02-23T14:49:34;13.73;;;7.32;;
72647;SDS011;60693;50.002;8.644;2023-02-23T14:52:13;12.85;;;4.95;;
72647;SDS011;60693;50.002;8.644;2023-02-23T14:54:44;15.05;;;4.07;;
72647;SDS011;60693;50.002;8.644;2023-02-23T14:57:17;12.50;;;4.40;;
72647;SDS011;60693;50.002;8.644;2023-02-23T14:59:45;10.48;;;3.75;;
72647;SDS011;60693;50.002;8.644;2023-02-23T15:02:23;12.00;;;4.60;;
72647;SDS011;60693;50.002;8.644;2023-02-23T15:04:50;16.60;;;4.57;;
72647;SDS011;60693;50.002;8.644;2023-02-23T15:07:21;11.30;;;4.10;;
72647;SDS011;60693;50.002;8.644;2023-02-23T15:09:55;14.20;;;4.70;;
72647;SDS011;60693;50.002;8.644;2023-02-23T15:12:23;13.13;;;4.78;;
72647;SDS011;60693;50.002;8.644;2023-02-23T15:14:57;12.73;;;4.78;;
72647;SDS011;60693;50.002;8.644;2023-02-23T15:17:24;15.55;;;5.35;;
72647;SDS011;60693;50.002;8.644;2023-02-23T15:19:55;15.03;;;5.60;;
72647;SDS011;60693;50.002;8.644;2023-02-23T15:22:23;16.25;;;6.00;;
72647;SDS011;60693;50.002;8.644;2023-02-23T15:24:51;17.33;;;7.90;;
72647;SDS011;60693;50.002;8.644;2023-02-23T15:27:22;13.13;;;5.18;;
72647;SDS011;60693;50.002;8.644;2023-02-23T15:29:50;13.02;;;5.28;;
72647;SDS011;60693;50.002;8.644;2023-02-23T15:32:17;132.93;;;74.70;;
72647;SDS011;60693;50.002;8.644;2023-02-23T15:34:44;14.88;;;6.57;;
72647;SDS011;60693;50.002;8.644;2023-02-23T15:37:11;14.47;;;5.90;;
72647;SDS011;60693;50.002;8.644;2023-02-23T15:39:47;17.13;;;6.13;;
72647;SDS011;60693;50.002;8.644;2023-02-23T15:42:18;20.05;;;7.50;;
72647;SDS011;60693;50.002;8.644;2023-02-23T15:44:52;16.77;;;7.47;;
72647;SDS011;60693;50.002;8.644;2023-02-23T15:47:25;18.87;;;7.20;;
72647;SDS011;60693;50.002;8.644;2023-02-23T15:49:59;16.08;;;6.50;;
72647;SDS011;60693;50.002;8.644;2023-02-23T15:52:29;15.30;;;5.47;;
72647;SDS011;60693;50.002;8.644;2023-02-23T15:55:06;17.65;;;7.75;;
72647;SDS011;60693;50.002;8.644;2023-02-23T15:57:40;19.63;;;8.02;;
72647;SDS011;60693;50.002;8.644;2023-02-23T16:00:15;19.23;;;8.87;;
72647;SDS011;60693;50.002;8.644;2023-02-23T16:02:44;17.70;;;6.88;;
72647;SDS011;60693;50.002;8.644;2023-02-23T16:05:17;21.83;;;8.00;;
72647;SDS011;60693;50.002;8.644;2023-02-23T16:07:45;16.45;;;7.55;;
72647;SDS011;60693;50.002;8.644;2023-02-23T16:10:23;31.60;;;14.07;;
72647;SDS011;60693;50.002;8.644;2023-02-23T16:12:50;19.92;;;8.75;;
72647;SDS011;60693;50.002;8.644;2023-02-23T16:15:21;17.73;;;7.20;;
72647;SDS011;60693;50.002;8.644;2023-02-23T16:17:55;18.55;;;6.35;;
72647;SDS011;60693;50.002;8.644;2023-02-23T16:20:42;17.98;;;7.35;;
72647;SDS011;60693;50.002;8.644;2023-02-23T16:23:28;17.98;;;7.05;;
72647;SDS011;60693;50.002;8.644;2023-02-23T16:25:57;17.60;;;7.28;;
72647;SDS011;60693;50.002;8.644;2023-02-23T16:28:34;15.30;;;6.85;;
72647;SDS011;60693;50.002;8.644;2023-02-23T16:31:05;18.77;;;7.57;;
72647;SDS011;60693;50.002;8.644;2023-02-23T16:38:35;17.23;;;6.13;;
72647;SDS011;60693;50.002;8.644;2023-02-23T16:41:04;18.42;;;6.70;;
72647;SDS011;60693;50.002;8.644;2023-02-23T16:43:31;14.35;;;6.05;;
72647;SDS011;60693;50.002;8.644;2023-02-23T16:46:02;15.32;;;5.82;;
72647;SDS011;60693;50.002;8.644;2023-02-23T16:48:27;19.65;;;7.20;;